sensor_id;sensor_type;location;lat;lon;timestamp;temperature;humidity
65470;DHT22;52067;50.710;14.492;2023-06-14T00:02:11;8.84;86.78
65470;DHT22;52067;50.710;14.492;2023-06-14T00:04:36;8.74;87.03
65470;DHT22;52067;50.710;14.492;2023-06-14T00:07:03;8.32;88.53
65470;DHT22;52067;50.710;14.492;2023-06-14T00:09:28;8.61;88.04
65470;DHT22;52067;50.710;14.492;2023-06-14T00:11:53;8.60;87.82
65470;DHT22;52067;50.710;14.492;2023-06-14T00:14:19;8.33;88.15
65470;DHT22;52067;50.710;14.492;2023-06-14T00:16:44;8.46;88.16
65470;DHT22;52067;50.710;14.492;2023-06-14T00:19:10;8.47;87.54
65470;DHT22;52067;50.710;14.492;2023-06-14T00:21:36;8.45;88.00
65470;DHT22;52067;50.710;14.492;2023-06-14T00:24:03;8.10;88.50
65470;DHT22;52067;50.710;14.492;2023-06-14T00:26:29;7.94;89.39
65470;DHT22;52067;50.710;14.492;2023-06-14T00:28:55;8.06;89.77
65470;DHT22;52067;50.710;14.492;2023-06-14T00:31:22;8.26;88.87
65470;DHT22;52067;50.710;14.492;2023-06-14T00:33:47;8.21;88.42
65470;DHT22;52067;50.710;14.492;2023-06-14T00:36:13;8.19;88.01
65470;DHT22;52067;50.710;14.492;2023-06-14T00:38:38;7.98;88.42
65470;DHT22;52067;50.710;14.492;2023-06-14T00:41:04;8.02;88.58
65470;DHT22;52067;50.710;14.492;2023-06-14T00:43:29;8.09;88.25
65470;DHT22;52067;50.710;14.492;2023-06-14T00:45:55;7.89;88.98
65470;DHT22;52067;50.710;14.492;2023-06-14T00:48:21;8.13;88.37
65470;DHT22;52067;50.710;14.492;2023-06-14T00:50:47;8.18;88.04
65470;DHT22;52067;50.710;14.492;2023-06-14T00:53:15;8.02;88.01
65470;DHT22;52067;50.710;14.492;2023-06-14T00:55:42;7.84;88.82
65470;DHT22;52067;50.710;14.492;2023-06-14T00:58:09;8.06;88.36
65470;DHT22;52067;50.710;14.492;2023-06-14T01:00:35;7.58;89.20
65470;DHT22;52067;50.710;14.492;2023-06-14T01:03:01;7.78;89.14
65470;DHT22;52067;50.710;14.492;2023-06-14T01:05:28;7.70;88.85
65470;DHT22;52067;50.710;14.492;2023-06-14T01:08:19;7.79;88.26
65470;DHT22;52067;50.710;14.492;2023-06-14T01:16:16;7.92;87.82
65470;DHT22;52067;50.710;14.492;2023-06-14T01:18:43;7.57;88.86
65470;DHT22;52067;50.710;14.492;2023-06-14T01:21:25;7.66;88.98
65470;DHT22;52067;50.710;14.492;2023-06-14T01:23:52;7.56;88.31
65470;DHT22;52067;50.710;14.492;2023-06-14T01:26:24;7.77;88.68
65470;DHT22;52067;50.710;14.492;2023-06-14T01:28:52;7.71;88.88
65470;DHT22;52067;50.710;14.492;2023-06-14T01:31:24;7.84;88.39
65470;DHT22;52067;50.710;14.492;2023-06-14T01:33:50;7.84;87.84
65470;DHT22;52067;50.710;14.492;2023-06-14T01:36:18;7.95;87.60
65470;DHT22;52067;50.710;14.492;2023-06-14T01:38:45;7.79;87.23
65470;DHT22;52067;50.710;14.492;2023-06-14T01:41:11;7.87;87.40
65470;DHT22;52067;50.710;14.492;2023-06-14T01:43:39;7.82;87.06
65470;DHT22;52067;50.710;14.492;2023-06-14T01:46:05;7.57;88.42
65470;DHT22;52067;50.710;14.492;2023-06-14T01:48:31;7.68;87.84
65470;DHT22;52067;50.710;14.492;2023-06-14T01:50:57;7.36;88.19
65470;DHT22;52067;50.710;14.492;2023-06-14T01:53:22;7.60;88.47
65470;DHT22;52067;50.710;14.492;2023-06-14T01:55:48;7.54;87.92
65470;DHT22;52067;50.710;14.492;2023-06-14T01:58:14;7.40;88.32
65470;DHT22;52067;50.710;14.492;2023-06-14T02:00:41;7.57;88.05
65470;DHT22;52067;50.710;14.492;2023-06-14T02:03:08;7.36;88.36
65470;DHT22;52067;50.710;14.492;2023-06-14T02:05:33;7.37;88.52
65470;DHT22;52067;50.710;14.492;2023-06-14T02:08:00;7.37;88.12
65470;DHT22;52067;50.710;14.492;2023-06-14T02:10:25;7.09;88.89
65470;DHT22;52067;50.710;14.492;2023-06-14T02:12:50;7.12;88.36
65470;DHT22;52067;50.710;14.492;2023-06-14T02:15:16;7.23;88.35
65470;DHT22;52067;50.710;14.492;2023-06-14T02:17:48;7.15;88.33
65470;DHT22;52067;50.710;14.492;2023-06-14T02:20:14;7.15;88.15
65470;DHT22;52067;50.710;14.492;2023-06-14T02:22:40;7.05;88.29
65470;DHT22;52067;50.710;14.492;2023-06-14T02:25:05;7.02;88.59
65470;DHT22;52067;50.710;14.492;2023-06-14T02:27:32;7.19;88.54
65470;DHT22;52067;50.710;14.492;2023-06-14T02:29:58;7.29;87.82
65470;DHT22;52067;50.710;14.492;2023-06-14T02:32:23;7.16;87.69
65470;DHT22;52067;50.710;14.492;2023-06-14T02:34:48;7.09;87.94
65470;DHT22;52067;50.710;14.492;2023-06-14T02:37:15;6.87;89.02
65470;DHT22;52067;50.710;14.492;2023-06-14T02:39:41;6.61;90.11
65470;DHT22;52067;50.710;14.492;2023-06-14T02:42:07;6.52;90.31
65470;DHT22;52067;50.710;14.492;2023-06-14T02:44:32;6.64;90.18
65470;DHT22;52067;50.710;14.492;2023-06-14T02:46:58;6.72;89.81
65470;DHT22;52067;50.710;14.492;2023-06-14T02:49:25;6.81;89.79
65470;DHT22;52067;50.710;14.492;2023-06-14T02:51:51;6.78;89.70
65470;DHT22;52067;50.710;14.492;2023-06-14T02:54:16;6.98;89.27
65470;DHT22;52067;50.710;14.492;2023-06-14T02:56:41;6.96;88.98
65470;DHT22;52067;50.710;14.492;2023-06-14T02:59:07;7.12;88.73
65470;DHT22;52067;50.710;14.492;2023-06-14T03:01:34;7.13;88.45
65470;DHT22;52067;50.710;14.492;2023-06-14T03:04:02;7.06;88.38
65470;DHT22;52067;50.710;14.492;2023-06-14T03:06:29;6.96;88.74
65470;DHT22;52067;50.710;14.492;2023-06-14T03:08:56;6.82;89.29
65470;DHT22;52067;50.710;14.492;2023-06-14T03:11:27;6.91;89.10
65470;DHT22;52067;50.710;14.492;2023-06-14T03:13:53;6.82;89.01
65470;DHT22;52067;50.710;14.492;2023-06-14T03:16:20;6.84;88.93
65470;DHT22;52067;50.710;14.492;2023-06-14T03:18:49;6.96;89.37
65470;DHT22;52067;50.710;14.492;2023-06-14T03:21:14;7.06;88.94
65470;DHT22;52067;50.710;14.492;2023-06-14T03:23:41;7.18;88.33
65470;DHT22;52067;50.710;14.492;2023-06-14T03:26:07;7.05;88.19
65470;DHT22;52067;50.710;14.492;2023-06-14T03:28:33;7.24;87.81
65470;DHT22;52067;50.710;14.492;2023-06-14T03:30:58;7.22;87.62
65470;DHT22;52067;50.710;14.492;2023-06-14T03:33:24;7.19;88.36
65470;DHT22;52067;50.710;14.492;2023-06-14T03:35:50;7.15;88.46
65470;DHT22;52067;50.710;14.492;2023-06-14T03:38:16;7.39;87.91
65470;DHT22;52067;50.710;14.492;2023-06-14T03:40:41;7.31;88.44
65470;DHT22;52067;50.710;14.492;2023-06-14T03:43:07;7.48;87.81
65470;DHT22;52067;50.710;14.492;2023-06-14T03:45:32;7.56;87.55
65470;DHT22;52067;50.710;14.492;2023-06-14T03:47:57;7.63;87.40
65470;DHT22;52067;50.710;14.492;2023-06-14T03:50:23;7.74;87.06
65470;DHT22;52067;50.710;14.492;2023-06-14T03:52:49;7.79;86.90
65470;DHT22;52067;50.710;14.492;2023-06-14T03:55:15;7.88;86.81
65470;DHT22;52067;50.710;14.492;2023-06-14T03:57:41;7.97;86.84
65470;DHT22;52067;50.710;14.492;2023-06-14T04:00:08;8.12;86.93
65470;DHT22;52067;50.710;14.492;2023-06-14T04:02:34;8.21;87.12
65470;DHT22;52067;50.710;14.492;2023-06-14T04:05:01;7.99;88.16
65470;DHT22;52067;50.710;14.492;2023-06-14T04:07:27;7.98;88.79
65470;DHT22;52067;50.710;14.492;2023-06-14T04:09:53;8.25;88.21
65470;DHT22;52067;50.710;14.492;2023-06-14T04:12:19;8.37;88.14
65470;DHT22;52067;50.710;14.492;2023-06-14T04:14:45;8.52;87.79
65470;DHT22;52067;50.710;14.492;2023-06-14T04:17:10;8.43;87.66
65470;DHT22;52067;50.710;14.492;2023-06-14T04:19:36;8.61;87.82
65470;DHT22;52067;50.710;14.492;2023-06-14T04:22:01;8.68;87.61
65470;DHT22;52067;50.710;14.492;2023-06-14T04:24:28;8.74;87.85
65470;DHT22;52067;50.710;14.492;2023-06-14T04:26:58;9.01;87.46
65470;DHT22;52067;50.710;14.492;2023-06-14T04:29:24;9.07;86.97
65470;DHT22;52067;50.710;14.492;2023-06-14T04:31:54;9.08;87.53
65470;DHT22;52067;50.710;14.492;2023-06-14T04:34:20;9.26;87.22
65470;DHT22;52067;50.710;14.492;2023-06-14T04:36:47;9.36;86.92
65470;DHT22;52067;50.710;14.492;2023-06-14T04:39:19;9.26;86.76
65470;DHT22;52067;50.710;14.492;2023-06-14T04:41:44;9.38;86.98
65470;DHT22;52067;50.710;14.492;2023-06-14T04:44:10;9.53;86.30
65470;DHT22;52067;50.710;14.492;2023-06-14T04:46:36;9.57;86.97
65470;DHT22;52067;50.710;14.492;2023-06-14T04:49:21;9.52;86.89
65470;DHT22;52067;50.710;14.492;2023-06-14T04:51:48;9.60;86.86
65470;DHT22;52067;50.710;14.492;2023-06-14T04:54:22;9.53;86.98
65470;DHT22;52067;50.710;14.492;2023-06-14T04:56:50;9.70;87.06
65470;DHT22;52067;50.710;14.492;2023-06-14T04:59:15;9.63;87.58
65470;DHT22;52067;50.710;14.492;2023-06-14T05:01:42;9.89;87.67
65470;DHT22;52067;50.710;14.492;2023-06-14T05:04:16;10.21;86.84
65470;DHT22;52067;50.710;14.492;2023-06-14T05:06:43;10.28;86.05
65470;DHT22;52067;50.710;14.492;2023-06-14T05:09:13;10.22;88.10
65470;DHT22;52067;50.710;14.492;2023-06-14T05:11:40;10.46;87.78
65470;DHT22;52067;50.710;14.492;2023-06-14T05:14:10;10.55;86.97
65470;DHT22;52067;50.710;14.492;2023-06-14T05:16:35;10.51;86.79
65470;DHT22;52067;50.710;14.492;2023-06-14T05:19:02;10.62;86.26
65470;DHT22;52067;50.710;14.492;2023-06-14T05:21:27;10.73;85.62
65470;DHT22;52067;50.710;14.492;2023-06-14T05:23:53;10.73;86.49
65470;DHT22;52067;50.710;14.492;2023-06-14T05:26:19;10.84;86.41
65470;DHT22;52067;50.710;14.492;2023-06-14T05:28:44;10.95;86.64
65470;DHT22;52067;50.710;14.492;2023-06-14T05:31:10;11.27;85.31
65470;DHT22;52067;50.710;14.492;2023-06-14T05:33:35;11.44;83.81
65470;DHT22;52067;50.710;14.492;2023-06-14T05:36:01;11.59;83.56
65470;DHT22;52067;50.710;14.492;2023-06-14T05:38:26;11.57;84.46
65470;DHT22;52067;50.710;14.492;2023-06-14T05:40:51;11.64;84.10
65470;DHT22;52067;50.710;14.492;2023-06-14T05:43:17;11.68;84.18
65470;DHT22;52067;50.710;14.492;2023-06-14T05:45:42;11.98;83.79
65470;DHT22;52067;50.710;14.492;2023-06-14T05:48:07;12.10;84.57
65470;DHT22;52067;50.710;14.492;2023-06-14T05:50:33;12.00;84.79
65470;DHT22;52067;50.710;14.492;2023-06-14T05:52:59;11.95;85.61
65470;DHT22;52067;50.710;14.492;2023-06-14T05:55:24;12.34;84.50
65470;DHT22;52067;50.710;14.492;2023-06-14T05:57:50;12.27;84.16
65470;DHT22;52067;50.710;14.492;2023-06-14T06:00:16;12.40;85.05
65470;DHT22;52067;50.710;14.492;2023-06-14T06:02:42;12.80;84.25
65470;DHT22;52067;50.710;14.492;2023-06-14T06:05:11;13.16;83.16
65470;DHT22;52067;50.710;14.492;2023-06-14T06:07:38;13.30;82.31
65470;DHT22;52067;50.710;14.492;2023-06-14T06:10:05;13.05;84.00
65470;DHT22;52067;50.710;14.492;2023-06-14T06:12:31;12.89;84.29
65470;DHT22;52067;50.710;14.492;2023-06-14T06:14:58;13.11;84.26
65470;DHT22;52067;50.710;14.492;2023-06-14T06:17:23;13.50;82.51
65470;DHT22;52067;50.710;14.492;2023-06-14T06:19:48;13.62;80.93
65470;DHT22;52067;50.710;14.492;2023-06-14T06:22:14;13.63;81.82
65470;DHT22;52067;50.710;14.492;2023-06-14T06:24:39;13.90;81.01
65470;DHT22;52067;50.710;14.492;2023-06-14T06:27:05;13.74;80.38
65470;DHT22;52067;50.710;14.492;2023-06-14T06:29:33;13.97;80.10
65470;DHT22;52067;50.710;14.492;2023-06-14T06:31:58;14.08;81.48
65470;DHT22;52067;50.710;14.492;2023-06-14T06:34:23;14.26;79.51
65470;DHT22;52067;50.710;14.492;2023-06-14T06:36:49;14.46;79.13
65470;DHT22;52067;50.710;14.492;2023-06-14T06:39:15;14.38;77.72
65470;DHT22;52067;50.710;14.492;2023-06-14T06:41:40;13.83;79.51
65470;DHT22;52067;50.710;14.492;2023-06-14T06:44:06;14.00;80.97
65470;DHT22;52067;50.710;14.492;2023-06-14T06:46:32;14.35;81.33
65470;DHT22;52067;50.710;14.492;2023-06-14T06:48:58;14.21;80.13
65470;DHT22;52067;50.710;14.492;2023-06-14T06:51:24;14.51;79.19
65470;DHT22;52067;50.710;14.492;2023-06-14T06:53:53;14.87;76.55
65470;DHT22;52067;50.710;14.492;2023-06-14T06:56:19;14.93;75.79
65470;DHT22;52067;50.710;14.492;2023-06-14T06:58:46;15.31;73.71
65470;DHT22;52067;50.710;14.492;2023-06-14T07:01:12;15.31;66.97
65470;DHT22;52067;50.710;14.492;2023-06-14T07:03:38;15.11;63.87
65470;DHT22;52067;50.710;14.492;2023-06-14T07:06:04;15.14;63.36
65470;DHT22;52067;50.710;14.492;2023-06-14T07:08:29;15.38;62.73
65470;DHT22;52067;50.710;14.492;2023-06-14T07:10:55;15.69;62.71
65470;DHT22;52067;50.710;14.492;2023-06-14T07:13:20;15.85;63.23
65470;DHT22;52067;50.710;14.492;2023-06-14T07:15:46;16.20;64.10
65470;DHT22;52067;50.710;14.492;2023-06-14T07:18:11;16.34;59.80
65470;DHT22;52067;50.710;14.492;2023-06-14T07:20:37;16.68;60.07
65470;DHT22;52067;50.710;14.492;2023-06-14T07:23:03;16.85;60.91
65470;DHT22;52067;50.710;14.492;2023-06-14T07:25:29;16.69;58.12
65470;DHT22;52067;50.710;14.492;2023-06-14T07:27:55;16.61;59.55
65470;DHT22;52067;50.710;14.492;2023-06-14T07:30:20;16.54;57.88
65470;DHT22;52067;50.710;14.492;2023-06-14T07:32:46;16.64;58.84
65470;DHT22;52067;50.710;14.492;2023-06-14T07:35:11;16.74;62.12
65470;DHT22;52067;50.710;14.492;2023-06-14T07:37:36;16.98;60.49
65470;DHT22;52067;50.710;14.492;2023-06-14T07:40:02;17.02;59.28
65470;DHT22;52067;50.710;14.492;2023-06-14T07:42:35;17.08;57.98
65470;DHT22;52067;50.710;14.492;2023-06-14T07:45:04;17.01;56.97
65470;DHT22;52067;50.710;14.492;2023-06-14T07:47:30;17.16;59.92
65470;DHT22;52067;50.710;14.492;2023-06-14T07:49:58;17.22;55.84
65470;DHT22;52067;50.710;14.492;2023-06-14T07:52:24;17.15;55.72
65470;DHT22;52067;50.710;14.492;2023-06-14T07:54:50;17.05;56.79
65470;DHT22;52067;50.710;14.492;2023-06-14T07:57:15;17.29;57.78
65470;DHT22;52067;50.710;14.492;2023-06-14T07:59:41;17.57;58.51
65470;DHT22;52067;50.710;14.492;2023-06-14T08:02:06;17.50;57.79
65470;DHT22;52067;50.710;14.492;2023-06-14T08:04:32;17.74;55.94
65470;DHT22;52067;50.710;14.492;2023-06-14T08:06:59;17.63;57.77
65470;DHT22;52067;50.710;14.492;2023-06-14T08:09:25;17.78;56.12
65470;DHT22;52067;50.710;14.492;2023-06-14T08:11:50;17.84;56.77
65470;DHT22;52067;50.710;14.492;2023-06-14T08:14:16;18.01;55.42
65470;DHT22;52067;50.710;14.492;2023-06-14T08:16:41;17.95;52.50
65470;DHT22;52067;50.710;14.492;2023-06-14T08:19:07;18.05;52.62
65470;DHT22;52067;50.710;14.492;2023-06-14T08:21:32;18.01;53.07
65470;DHT22;52067;50.710;14.492;2023-06-14T08:23:58;18.11;54.98
65470;DHT22;52067;50.710;14.492;2023-06-14T08:26:24;18.11;53.89
65470;DHT22;52067;50.710;14.492;2023-06-14T08:28:54;18.55;54.31
65470;DHT22;52067;50.710;14.492;2023-06-14T08:31:20;18.57;51.48
65470;DHT22;52067;50.710;14.492;2023-06-14T08:33:45;18.73;55.42
65470;DHT22;52067;50.710;14.492;2023-06-14T08:36:11;19.07;52.87
65470;DHT22;52067;50.710;14.492;2023-06-14T08:38:37;19.15;52.57
65470;DHT22;52067;50.710;14.492;2023-06-14T08:41:04;19.35;50.95
65470;DHT22;52067;50.710;14.492;2023-06-14T08:43:31;18.48;53.46
65470;DHT22;52067;50.710;14.492;2023-06-14T08:46:02;17.94;53.43
65470;DHT22;52067;50.710;14.492;2023-06-14T08:48:28;18.31;53.01
65470;DHT22;52067;50.710;14.492;2023-06-14T08:50:59;19.31;55.36
65470;DHT22;52067;50.710;14.492;2023-06-14T08:53:33;19.94;55.21
65470;DHT22;52067;50.710;14.492;2023-06-14T08:55:59;19.77;52.90
65470;DHT22;52067;50.710;14.492;2023-06-14T08:58:31;18.94;53.23
65470;DHT22;52067;50.710;14.492;2023-06-14T09:01:05;18.97;51.50
65470;DHT22;52067;50.710;14.492;2023-06-14T09:03:32;19.29;52.30
65470;DHT22;52067;50.710;14.492;2023-06-14T09:05:58;19.32;53.45
65470;DHT22;52067;50.710;14.492;2023-06-14T09:08:27;19.24;52.40
65470;DHT22;52067;50.710;14.492;2023-06-14T09:10:55;19.52;53.51
65470;DHT22;52067;50.710;14.492;2023-06-14T09:13:21;18.21;53.56
65470;DHT22;52067;50.710;14.492;2023-06-14T09:15:47;18.52;52.88
65470;DHT22;52067;50.710;14.492;2023-06-14T09:18:12;19.29;54.65
65470;DHT22;52067;50.710;14.492;2023-06-14T09:20:37;19.61;51.43
65470;DHT22;52067;50.710;14.492;2023-06-14T09:23:04;19.04;53.32
65470;DHT22;52067;50.710;14.492;2023-06-14T09:25:30;19.85;52.25
65470;DHT22;52067;50.710;14.492;2023-06-14T09:27:55;19.68;50.42
65470;DHT22;52067;50.710;14.492;2023-06-14T09:30:21;19.92;47.11
65470;DHT22;52067;50.710;14.492;2023-06-14T09:32:47;19.24;50.41
65470;DHT22;52067;50.710;14.492;2023-06-14T09:35:12;19.98;48.58
65470;DHT22;52067;50.710;14.492;2023-06-14T09:37:37;20.28;48.11
65470;DHT22;52067;50.710;14.492;2023-06-14T09:40:04;20.85;47.86
65470;DHT22;52067;50.710;14.492;2023-06-14T09:42:30;21.06;44.56
65470;DHT22;52067;50.710;14.492;2023-06-14T09:44:56;20.55;47.46
65470;DHT22;52067;50.710;14.492;2023-06-14T09:47:23;21.05;50.68
65470;DHT22;52067;50.710;14.492;2023-06-14T09:49:49;21.05;44.12
65470;DHT22;52067;50.710;14.492;2023-06-14T09:52:19;20.65;50.85
65470;DHT22;52067;50.710;14.492;2023-06-14T09:54:46;20.72;48.22
65470;DHT22;52067;50.710;14.492;2023-06-14T09:57:13;21.14;45.58
65470;DHT22;52067;50.710;14.492;2023-06-14T09:59:43;20.59;45.72
65470;DHT22;52067;50.710;14.492;2023-06-14T10:02:21;20.68;46.10
65470;DHT22;52067;50.710;14.492;2023-06-14T10:07:24;21.02;44.82
65470;DHT22;52067;50.710;14.492;2023-06-14T10:09:52;21.34;48.78
65470;DHT22;52067;50.710;14.492;2023-06-14T10:12:18;21.37;43.53
65470;DHT22;52067;50.710;14.492;2023-06-14T10:14:49;21.50;46.11
65470;DHT22;52067;50.710;14.492;2023-06-14T10:17:42;21.42;44.79
65470;DHT22;52067;50.710;14.492;2023-06-14T10:20:33;21.51;46.77
65470;DHT22;52067;50.710;14.492;2023-06-14T10:23:10;21.60;47.79
65470;DHT22;52067;50.710;14.492;2023-06-14T10:25:37;22.04;42.89
65470;DHT22;52067;50.710;14.492;2023-06-14T10:28:15;21.39;44.63
65470;DHT22;52067;50.710;14.492;2023-06-14T10:39:07;21.91;43.14
65470;DHT22;52067;50.710;14.492;2023-06-14T10:41:40;22.59;42.73
65470;DHT22;52067;50.710;14.492;2023-06-14T10:46:46;21.81;43.80
65470;DHT22;52067;50.710;14.492;2023-06-14T10:49:11;22.01;44.27
65470;DHT22;52067;50.710;14.492;2023-06-14T10:51:42;20.51;47.49
65470;DHT22;52067;50.710;14.492;2023-06-14T10:54:20;21.16;45.97
65470;DHT22;52067;50.710;14.492;2023-06-14T10:56:50;20.86;48.33
65470;DHT22;52067;50.710;14.492;2023-06-14T10:59:18;20.64;48.41
65470;DHT22;52067;50.710;14.492;2023-06-14T11:01:58;20.56;48.64
65470;DHT22;52067;50.710;14.492;2023-06-14T11:04:47;21.37;50.00
65470;DHT22;52067;50.710;14.492;2023-06-14T11:07:38;22.23;44.97
65470;DHT22;52067;50.710;14.492;2023-06-14T11:12:49;24.68;40.24
65470;DHT22;52067;50.710;14.492;2023-06-14T11:15:15;24.48;41.15
65470;DHT22;52067;50.710;14.492;2023-06-14T11:17:53;22.96;43.91
65470;DHT22;52067;50.710;14.492;2023-06-14T11:20:19;24.73;39.92
65470;DHT22;52067;50.710;14.492;2023-06-14T11:22:45;25.54;37.85
65470;DHT22;52067;50.710;14.492;2023-06-14T11:25:14;27.14;36.08
65470;DHT22;52067;50.710;14.492;2023-06-14T11:27:42;24.79;39.02
65470;DHT22;52067;50.710;14.492;2023-06-14T11:30:08;25.22;38.34
65470;DHT22;52067;50.710;14.492;2023-06-14T11:32:35;26.73;35.91
65470;DHT22;52067;50.710;14.492;2023-06-14T11:35:02;23.86;40.47
65470;DHT22;52067;50.710;14.492;2023-06-14T11:37:28;24.44;40.11
65470;DHT22;52067;50.710;14.492;2023-06-14T11:39:58;24.37;39.76
65470;DHT22;52067;50.710;14.492;2023-06-14T11:42:26;23.44;40.64
65470;DHT22;52067;50.710;14.492;2023-06-14T11:44:53;23.11;44.38
65470;DHT22;52067;50.710;14.492;2023-06-14T11:47:18;20.84;47.54
65470;DHT22;52067;50.710;14.492;2023-06-14T11:49:44;20.98;47.85
65470;DHT22;52067;50.710;14.492;2023-06-14T11:52:09;21.57;48.96
65470;DHT22;52067;50.710;14.492;2023-06-14T11:54:36;22.67;45.30
65470;DHT22;52067;50.710;14.492;2023-06-14T11:57:03;23.96;44.62
65470;DHT22;52067;50.710;14.492;2023-06-14T11:59:29;23.52;44.15
65470;DHT22;52067;50.710;14.492;2023-06-14T12:01:56;21.82;46.15
65470;DHT22;52067;50.710;14.492;2023-06-14T12:04:26;21.00;46.39
65470;DHT22;52067;50.710;14.492;2023-06-14T12:06:52;20.81;49.60
65470;DHT22;52067;50.710;14.492;2023-06-14T12:09:20;21.49;48.74
65470;DHT22;52067;50.710;14.492;2023-06-14T12:11:49;22.91;46.34
65470;DHT22;52067;50.710;14.492;2023-06-14T12:14:14;21.51;47.02
65470;DHT22;52067;50.710;14.492;2023-06-14T12:16:40;21.10;49.44
65470;DHT22;52067;50.710;14.492;2023-06-14T12:19:16;20.10;51.19
65470;DHT22;52067;50.710;14.492;2023-06-14T12:21:45;19.55;53.55
65470;DHT22;52067;50.710;14.492;2023-06-14T12:24:13;19.75;52.74
65470;DHT22;52067;50.710;14.492;2023-06-14T12:26:38;19.15;54.34
65470;DHT22;52067;50.710;14.492;2023-06-14T12:29:06;19.18;53.39
65470;DHT22;52067;50.710;14.492;2023-06-14T12:31:32;19.51;52.89
65470;DHT22;52067;50.710;14.492;2023-06-14T12:33:58;19.10;54.49
65470;DHT22;52067;50.710;14.492;2023-06-14T12:36:23;18.87;53.22
65470;DHT22;52067;50.710;14.492;2023-06-14T12:38:48;18.64;54.25
65470;DHT22;52067;50.710;14.492;2023-06-14T12:41:14;18.57;54.77
65470;DHT22;52067;50.710;14.492;2023-06-14T12:43:41;18.49;54.22
65470;DHT22;52067;50.710;14.492;2023-06-14T12:46:07;18.48;53.67
65470;DHT22;52067;50.710;14.492;2023-06-14T12:48:32;18.49;52.84
65470;DHT22;52067;50.710;14.492;2023-06-14T12:50:59;18.69;52.42
65470;DHT22;52067;50.710;14.492;2023-06-14T12:53:24;18.57;52.83
65470;DHT22;52067;50.710;14.492;2023-06-14T12:55:50;18.73;52.55
65470;DHT22;52067;50.710;14.492;2023-06-14T12:58:15;18.66;53.30
65470;DHT22;52067;50.710;14.492;2023-06-14T13:00:42;18.79;53.09
65470;DHT22;52067;50.710;14.492;2023-06-14T13:03:09;19.19;51.88
65470;DHT22;52067;50.710;14.492;2023-06-14T13:05:35;19.12;51.09
65470;DHT22;52067;50.710;14.492;2023-06-14T13:08:00;19.07;52.53
65470;DHT22;52067;50.710;14.492;2023-06-14T13:10:26;19.19;51.22
65470;DHT22;52067;50.710;14.492;2023-06-14T13:12:51;19.76;50.07
65470;DHT22;52067;50.710;14.492;2023-06-14T13:15:17;20.30;47.91
65470;DHT22;52067;50.710;14.492;2023-06-14T13:17:42;20.95;47.60
65470;DHT22;52067;50.710;14.492;2023-06-14T13:20:13;22.33;46.39
65470;DHT22;52067;50.710;14.492;2023-06-14T13:22:39;23.87;41.44
65470;DHT22;52067;50.710;14.492;2023-06-14T13:25:05;24.81;37.97
65470;DHT22;52067;50.710;14.492;2023-06-14T13:27:30;23.22;40.77
65470;DHT22;52067;50.710;14.492;2023-06-14T13:29:56;22.52;40.89
65470;DHT22;52067;50.710;14.492;2023-06-14T13:32:21;21.94;42.20
65470;DHT22;52067;50.710;14.492;2023-06-14T13:34:47;23.37;41.36
65470;DHT22;52067;50.710;14.492;2023-06-14T13:37:13;23.11;41.56
65470;DHT22;52067;50.710;14.492;2023-06-14T13:39:39;22.23;43.79
65470;DHT22;52067;50.710;14.492;2023-06-14T13:42:04;21.98;42.31
65470;DHT22;52067;50.710;14.492;2023-06-14T13:44:30;21.50;43.74
65470;DHT22;52067;50.710;14.492;2023-06-14T13:46:55;21.34;46.95
65470;DHT22;52067;50.710;14.492;2023-06-14T13:49:21;23.51;41.84
65470;DHT22;52067;50.710;14.492;2023-06-14T13:51:47;25.27;38.60
65470;DHT22;52067;50.710;14.492;2023-06-14T13:54:13;25.80;38.22
65470;DHT22;52067;50.710;14.492;2023-06-14T13:56:39;25.08;38.23
65470;DHT22;52067;50.710;14.492;2023-06-14T13:59:05;23.21;43.74
65470;DHT22;52067;50.710;14.492;2023-06-14T14:01:30;21.82;44.83
65470;DHT22;52067;50.710;14.492;2023-06-14T14:03:55;20.54;45.50
65470;DHT22;52067;50.710;14.492;2023-06-14T14:06:21;20.71;44.80
65470;DHT22;52067;50.710;14.492;2023-06-14T14:08:46;20.55;45.76
65470;DHT22;52067;50.710;14.492;2023-06-14T14:11:12;19.97;47.45
65470;DHT22;52067;50.710;14.492;2023-06-14T14:13:38;23.01;42.11
65470;DHT22;52067;50.710;14.492;2023-06-14T14:16:05;25.24;36.43
65470;DHT22;52067;50.710;14.492;2023-06-14T14:18:30;25.34;36.95
65470;DHT22;52067;50.710;14.492;2023-06-14T14:20:56;26.53;32.86
65470;DHT22;52067;50.710;14.492;2023-06-14T14:23:21;25.12;34.61
65470;DHT22;52067;50.710;14.492;2023-06-14T14:25:47;23.37;37.19
65470;DHT22;52067;50.710;14.492;2023-06-14T14:28:13;22.12;42.22
65470;DHT22;52067;50.710;14.492;2023-06-14T14:30:44;21.27;45.22
65470;DHT22;52067;50.710;14.492;2023-06-14T14:33:09;21.85;42.63
65470;DHT22;52067;50.710;14.492;2023-06-14T14:35:49;21.91;41.71
65470;DHT22;52067;50.710;14.492;2023-06-14T14:38:15;21.44;43.45
65470;DHT22;52067;50.710;14.492;2023-06-14T14:40:41;21.06;43.75
65470;DHT22;52067;50.710;14.492;2023-06-14T14:43:07;21.07;45.63
65470;DHT22;52067;50.710;14.492;2023-06-14T14:45:32;21.34;45.58
65470;DHT22;52067;50.710;14.492;2023-06-14T14:47:57;21.19;45.40
65470;DHT22;52067;50.710;14.492;2023-06-14T14:50:25;21.60;45.06
65470;DHT22;52067;50.710;14.492;2023-06-14T14:52:50;21.49;43.70
65470;DHT22;52067;50.710;14.492;2023-06-14T14:55:16;21.58;44.39
65470;DHT22;52067;50.710;14.492;2023-06-14T14:57:41;20.81;46.42
65470;DHT22;52067;50.710;14.492;2023-06-14T15:00:07;21.29;44.32
65470;DHT22;52067;50.710;14.492;2023-06-14T15:02:33;22.16;41.96
65470;DHT22;52067;50.710;14.492;2023-06-14T15:04:58;22.30;43.22
65470;DHT22;52067;50.710;14.492;2023-06-14T15:07:27;21.78;45.59
65470;DHT22;52067;50.710;14.492;2023-06-14T15:09:53;23.31;41.08
65470;DHT22;52067;50.710;14.492;2023-06-14T15:12:18;23.54;43.24
65470;DHT22;52067;50.710;14.492;2023-06-14T15:14:45;24.27;40.02
65470;DHT22;52067;50.710;14.492;2023-06-14T15:17:10;25.06;36.59
65470;DHT22;52067;50.710;14.492;2023-06-14T15:19:36;25.13;38.37
65470;DHT22;52067;50.710;14.492;2023-06-14T15:22:01;24.81;35.86
65470;DHT22;52067;50.710;14.492;2023-06-14T15:24:27;24.35;38.92
65470;DHT22;52067;50.710;14.492;2023-06-14T15:26:52;25.37;36.87
65470;DHT22;52067;50.710;14.492;2023-06-14T15:29:20;24.65;36.05
65470;DHT22;52067;50.710;14.492;2023-06-14T15:31:45;25.02;36.34
65470;DHT22;52067;50.710;14.492;2023-06-14T15:34:12;22.50;42.52
65470;DHT22;52067;50.710;14.492;2023-06-14T15:36:37;23.27;41.25
65470;DHT22;52067;50.710;14.492;2023-06-14T15:39:03;26.06;35.66
65470;DHT22;52067;50.710;14.492;2023-06-14T15:41:28;23.65;37.35